Hauptseite
METAR-TAF:

METAR-TAF

Flughäfen :

Yap, Mikronesien

Breite: 09-29N, Länge: 138-05E, Höhe: 28 m

Beobachtung

Neuester Wetterbericht von vor 35 Minuten, um 00:50 UTC
Wind 3 kt aus unterschiedlichen Richtungen
Temperatur 31°C
Luftfeuchtigkeit 79%
Luftdruck 1011 hPa
Sichtweite: 19.3 km
Leicht bewölkt in der Höhe von 1600 ft
Aufgelockert bewölkt in der Höhe von 13000 ft
Durchbrochene Bewölkung in der Höhe von 30000 ft

METAR: PTYA 190050Z VRB03KT 12SM FEW016 SCT130 BKN300 31/27 A2984 RMK SLP105 T03130266

Zeit: 11:25 (01:25 UTC)

Prognose

Neuester Wetterbericht von vor 1 Stunde und 53 Minuten, um 23:32 UTC
Gültige Prognose vom 19 um 00 UTC bis 19 um 24 UTC
Wind 4 kt aus unterschiedlichen Richtungen
Sichtweite: 10 km
Leicht bewölkt in der Höhe von 1600 ft
Aufgelockert bewölkt in der Höhe von 13000 ft
Schauer in der Nähe

TAF: PTYA 182332Z 1900/1924 VRB04KT P6SM VCSH FEW016 SCT130

Wetterbeobachtungen und Prognosen von mehr als 4000 Flughäfen (METAR und TAF Bericht).

Die verfügbaren Stationen werden durch gelbe und rote Markierungen auf der Karte dargestellt.

Führen Sie die Maus auf sie, um den Namen der Station zu sehen.

Darauf klicken, um die Beobachtung von Wetterbeobachtungen und Prognosen zu sehen.

Um die Karte zu ändern : klicken Sie auf den grünen Tasten mit einem schwarzen Kreuz Zum Vergrößern, auf den grünen Button mit einem Gedankenstrich zu verkleinern, oder auf die grünen Pfeile für benachbarte Karten.


METAR-TAF: